Time;durP1;ratioP1;P1;durP2;ratioP2;P2;SDS_P1;SDS_P2;PMS_P1;PMS_P2;Temp;Humidity;BMP_temperature;BMP_pressure;BME280_temperature;BME280_humidity;BME280_pressure;Samples;Min_cycle;Max_cycle;Signal;HPM_P1;HPM_P2
2023/06/11 00:00:31;;;;;;;4.93;3.83;;;;;;;;;;6320471;28;21063;-72
2023/06/11 00:03:34;;;;;;;4.47;3.60;;;;;;;;;;6321629;23;20451;-65
2023/06/11 00:06:39;;;;;;;5.43;4.00;;;;;;;;;;6244958;28;20439;-65
2023/06/11 00:09:42;;;;;;;5.60;4.00;;;;;;;;;;6233623;28;20455;-65
2023/06/11 00:12:45;;;;;;;4.70;3.53;;;;;;;;;;6244090;28;20477;-65
2023/06/11 00:15:47;;;;;;;4.93;4.00;;;;;;;;;;6244931;28;20432;-66
2023/06/11 00:18:50;;;;;;;4.13;3.60;;;;;;;;;;6240157;28;20444;-65
2023/06/11 00:21:56;;;;;;;4.77;3.83;;;;;;;;;;6238701;27;20440;-66
2023/06/11 00:24:58;;;;;;;3.63;3.23;;;;;;;;;;6245315;27;20431;-65
2023/06/11 00:28:01;;;;;;;3.90;3.60;;;;;;;;;;6244633;28;20463;-66
2023/06/11 00:31:04;;;;;;;3.60;3.30;;;;;;;;;;6233500;27;20513;-68
2023/06/11 00:34:07;;;;;;;3.20;3.00;;;;;;;;;;6244950;28;20450;-66
2023/06/11 00:37:13;;;;;;;4.10;3.70;;;;;;;;;;6244739;28;20449;-66
2023/06/11 00:40:16;;;;;;;3.73;3.30;;;;;;;;;;6243207;28;20593;-65
2023/06/11 00:43:21;;;;;;;3.90;3.53;;;;;;;;;;6233887;27;20455;-66
2023/06/11 00:46:24;;;;;;;4.00;3.70;;;;;;;;;;6244596;28;20798;-65
2023/06/11 00:49:28;;;;;;;3.83;3.40;;;;;;;;;;6244600;28;20459;-65
2023/06/11 00:52:32;;;;;;;4.40;4.10;;;;;;;;;;6239736;28;20459;-65
2023/06/11 00:55:35;;;;;;;3.80;3.50;;;;;;;;;;6234682;28;20455;-65
2023/06/11 00:58:38;;;;;;;3.37;3.07;;;;;;;;;;6244275;28;20459;-65
2023/06/11 01:01:43;;;;;;;4.00;3.70;;;;;;;;;;6235844;28;20890;-65
2023/06/11 01:04:47;;;;;;;3.80;3.50;;;;;;;;;;6233228;27;20454;-65
2023/06/11 01:07:51;;;;;;;3.77;3.47;;;;;;;;;;6242691;27;21057;-61
2023/06/11 01:10:59;;;;;;;5.27;3.50;;;;;;;;;;6240507;28;20459;-61
2023/06/11 01:14:02;;;;;;;3.97;3.67;;;;;;;;;;6235525;28;20882;-60
2023/06/11 01:17:07;;;;;;;4.63;4.17;;;;;;;;;;6233820;28;20806;-60
2023/06/11 01:20:13;;;;;;;4.07;3.73;;;;;;;;;;6244335;28;20532;-60
2023/06/11 01:23:20;;;;;;;4.70;4.23;;;;;;;;;;6243215;27;20440;-60
2023/06/11 01:26:34;;;;;;;5.60;4.40;;;;;;;;;;6243739;28;20425;-60
2023/06/11 01:29:45;;;;;;;4.20;3.77;;;;;;;;;;6236601;28;20450;-60
2023/06/11 01:32:52;;;;;;;4.17;3.87;;;;;;;;;;6240216;28;20452;-62
2023/06/11 01:35:58;;;;;;;5.33;4.30;;;;;;;;;;6238307;28;20428;-60
2023/06/11 01:39:01;;;;;;;4.70;4.30;;;;;;;;;;6234274;28;20436;-61
2023/06/11 01:42:05;;;;;;;4.40;4.10;;;;;;;;;;6233442;28;20436;-60
2023/06/11 01:45:10;;;;;;;7.13;4.17;;;;;;;;;;6242778;28;20432;-60
2023/06/11 01:48:13;;;;;;;5.00;4.60;;;;;;;;;;6244148;28;20960;-61
2023/06/11 01:51:16;;;;;;;5.47;3.90;;;;;;;;;;6233324;28;20446;-60
2023/06/11 01:54:19;;;;;;;4.10;3.80;;;;;;;;;;6243680;28;20432;-60
2023/06/11 01:57:22;;;;;;;3.87;3.57;;;;;;;;;;6248333;28;20572;-61
2023/06/11 02:00:26;;;;;;;4.73;4.30;;;;;;;;;;6243543;28;20468;-61
2023/06/11 02:03:29;;;;;;;4.50;4.10;;;;;;;;;;6232938;28;20516;-60
2023/06/11 02:06:33;;;;;;;4.03;3.73;;;;;;;;;;6243011;28;20468;-60
2023/06/11 02:09:36;;;;;;;4.47;4.10;;;;;;;;;;6243122;28;20448;-60
2023/06/11 02:12:38;;;;;;;4.07;3.67;;;;;;;;;;6236411;28;20591;-61
2023/06/11 02:15:43;;;;;;;4.50;4.10;;;;;;;;;;6238535;28;20560;-61
2023/06/11 02:18:45;;;;;;;4.33;4.00;;;;;;;;;;6243576;28;20584;-61
2023/06/11 02:21:48;;;;;;;3.80;3.50;;;;;;;;;;6242667;28;20440;-61
2023/06/11 02:24:51;;;;;;;4.40;4.00;;;;;;;;;;6232408;28;20821;-61
2023/06/11 02:27:54;;;;;;;3.73;3.43;;;;;;;;;;6243121;28;20519;-61
2023/06/11 02:30:58;;;;;;;4.60;3.80;;;;;;;;;;6242375;28;20472;-60
2023/06/11 02:34:01;;;;;;;4.60;4.20;;;;;;;;;;6243281;28;20800;-61
2023/06/11 02:37:04;;;;;;;4.20;3.90;;;;;;;;;;6232102;28;20436;-60
2023/06/11 02:40:07;;;;;;;4.40;4.00;;;;;;;;;;6241717;28;20440;-60
2023/06/11 02:43:10;;;;;;;4.43;3.63;;;;;;;;;;6242347;28;20440;-60
2023/06/11 02:46:14;;;;;;;4.07;3.77;;;;;;;;;;6242881;28;20431;-60
2023/06/11 02:49:18;;;;;;;3.63;3.43;;;;;;;;;;6233241;27;20797;-60
2023/06/11 02:52:21;;;;;;;4.10;3.80;;;;;;;;;;6233375;28;20432;-61
2023/06/11 02:55:24;;;;;;;7.27;4.20;;;;;;;;;;6242646;28;20527;-61
2023/06/11 02:58:26;;;;;;;4.97;4.57;;;;;;;;;;6232563;28;20440;-62
2023/06/11 03:01:31;;;;;;;4.07;3.77;;;;;;;;;;6239260;28;20899;-63
2023/06/11 03:04:34;;;;;;;4.50;4.20;;;;;;;;;;6237835;28;20450;-61
2023/06/11 03:07:36;;;;;;;5.57;5.07;;;;;;;;;;6242459;28;20466;-60
2023/06/11 03:10:39;;;;;;;5.07;4.70;;;;;;;;;;6229751;28;20454;-61
2023/06/11 03:13:42;;;;;;;5.93;5.40;;;;;;;;;;6240977;28;20449;-61
2023/06/11 03:16:46;;;;;;;5.63;4.90;;;;;;;;;;6242125;28;20447;-61
2023/06/11 03:19:49;;;;;;;5.23;4.80;;;;;;;;;;6242556;28;20527;-61
2023/06/11 03:22:52;;;;;;;5.13;4.63;;;;;;;;;;6228307;28;20957;-61
2023/06/11 03:25:55;;;;;;;5.50;5.10;;;;;;;;;;6235215;28;20439;-61
2023/06/11 03:28:58;;;;;;;4.60;4.30;;;;;;;;;;6244973;28;20452;-70
2023/06/11 03:32:02;;;;;;;4.93;4.63;;;;;;;;;;6239468;28;20815;-69
2023/06/11 03:35:05;;;;;;;5.57;5.07;;;;;;;;;;6228647;27;20440;-70
2023/06/11 03:38:08;;;;;;;7.30;5.70;;;;;;;;;;6244702;27;20465;-71
2023/06/11 03:41:11;;;;;;;6.57;5.77;;;;;;;;;;6243638;28;20436;-71
2023/06/11 03:44:13;;;;;;;6.30;5.70;;;;;;;;;;6235458;28;20998;-71
2023/06/11 03:47:18;;;;;;;5.90;5.40;;;;;;;;;;6245317;28;20557;-70
2023/06/11 03:50:21;;;;;;;5.97;5.40;;;;;;;;;;6244887;28;20570;-69
2023/06/11 03:53:23;;;;;;;5.40;4.90;;;;;;;;;;6244130;28;20537;-71
2023/06/11 03:56:26;;;;;;;6.07;5.57;;;;;;;;;;6234187;27;20436;-70
2023/06/11 03:59:29;;;;;;;6.33;5.83;;;;;;;;;;6245015;28;20509;-70
2023/06/11 04:02:33;;;;;;;6.30;5.70;;;;;;;;;;6235288;28;20466;-66
2023/06/11 04:05:37;;;;;;;7.40;5.43;;;;;;;;;;6244722;28;20789;-71
2023/06/11 04:08:39;;;;;;;6.03;5.10;;;;;;;;;;6230032;28;20460;-70
2023/06/11 04:11:42;;;;;;;6.20;4.97;;;;;;;;;;6244578;28;20443;-72
2023/06/11 04:14:45;;;;;;;5.20;4.80;;;;;;;;;;6244859;28;20436;-72
2023/06/11 04:17:49;;;;;;;5.20;4.80;;;;;;;;;;6240016;27;20444;-70
2023/06/11 04:20:52;;;;;;;8.47;5.10;;;;;;;;;;6240181;28;20444;-69
2023/06/11 04:23:55;;;;;;;10.93;5.57;;;;;;;;;;6242846;28;20445;-69
2023/06/11 04:26:58;;;;;;;5.80;5.27;;;;;;;;;;6244962;27;20440;-69
2023/06/11 04:30:01;;;;;;;7.20;5.20;;;;;;;;;;6233954;28;20826;-68
2023/06/11 04:33:05;;;;;;;7.10;6.00;;;;;;;;;;6243660;27;20553;-65
2023/06/11 04:36:09;;;;;;;6.53;6.03;;;;;;;;;;6242629;28;20432;-65
2023/06/11 04:39:12;;;;;;;11.13;6.50;;;;;;;;;;6243220;28;20472;-66
2023/06/11 04:42:16;;;;;;;8.07;6.47;;;;;;;;;;6232071;28;20440;-66
2023/06/11 04:45:20;;;;;;;8.00;7.30;;;;;;;;;;6245072;28;20550;-66
2023/06/11 04:48:24;;;;;;;9.17;7.33;;;;;;;;;;6244473;28;20438;-66
2023/06/11 04:51:32;;;;;;;8.53;7.40;;;;;;;;;;6241623;27;20812;-66
2023/06/11 04:54:35;;;;;;;6.40;5.80;;;;;;;;;;6238819;27;20517;-66
2023/06/11 04:57:38;;;;;;;6.30;5.80;;;;;;;;;;6243721;28;20440;-65
2023/06/11 05:00:42;;;;;;;6.67;6.00;;;;;;;;;;6244017;28;20450;-66
2023/06/11 05:03:46;;;;;;;6.40;5.90;;;;;;;;;;6232123;27;20546;-66
2023/06/11 05:06:52;;;;;;;6.70;6.03;;;;;;;;;;6244503;28;20451;-66
2023/06/11 05:09:55;;;;;;;7.17;6.10;;;;;;;;;;6245098;27;20452;-67
2023/06/11 05:12:58;;;;;;;7.20;6.47;;;;;;;;;;6231302;27;20567;-66
2023/06/11 05:16:01;;;;;;;8.30;5.90;;;;;;;;;;6233414;28;20483;-66
2023/06/11 05:19:05;;;;;;;6.27;5.77;;;;;;;;;;6244300;28;20455;-68
2023/06/11 05:22:08;;;;;;;19.23;6.60;;;;;;;;;;6243777;28;20428;-65
2023/06/11 05:25:15;;;;;;;7.60;5.87;;;;;;;;;;6244627;27;20448;-66
2023/06/11 05:28:17;;;;;;;9.53;6.83;;;;;;;;;;6233961;27;20451;-66
2023/06/11 05:31:21;;;;;;;6.90;6.13;;;;;;;;;;6243111;27;20444;-66
2023/06/11 05:34:25;;;;;;;12.17;6.20;;;;;;;;;;6241471;28;20436;-67
2023/06/11 05:37:29;;;;;;;14.03;6.27;;;;;;;;;;6250568;27;20448;-65
2023/06/11 05:40:31;;;;;;;12.90;6.60;;;;;;;;;;6250055;27;20440;-65
2023/06/11 05:43:35;;;;;;;12.17;6.70;;;;;;;;;;6317104;28;20432;-65
2023/06/11 05:46:38;;;;;;;13.33;8.23;;;;;;;;;;6243757;28;20439;-65
2023/06/11 05:49:42;;;;;;;7.77;7.00;;;;;;;;;;6249535;28;20593;-61
2023/06/11 05:52:45;;;;;;;14.03;7.93;;;;;;;;;;6244843;28;20452;-61
2023/06/11 05:55:48;;;;;;;8.47;6.80;;;;;;;;;;6243319;28;20436;-61
2023/06/11 05:58:52;;;;;;;9.70;7.07;;;;;;;;;;6243184;28;20809;-61
2023/06/11 06:01:55;;;;;;;11.10;7.10;;;;;;;;;;6232066;28;20449;-61
2023/06/11 06:04:59;;;;;;;10.00;7.20;;;;;;;;;;6279672;28;20500;-61
2023/06/11 06:08:02;;;;;;;8.40;7.07;;;;;;;;;;6241794;28;20486;-61
2023/06/11 06:11:05;;;;;;;10.50;8.07;;;;;;;;;;6243471;28;20454;-63
2023/06/11 06:14:08;;;;;;;10.93;8.03;;;;;;;;;;6236427;28;20469;-61
2023/06/11 06:17:11;;;;;;;8.40;7.37;;;;;;;;;;6255034;28;20465;-61
2023/06/11 06:20:15;;;;;;;8.23;7.50;;;;;;;;;;6320869;28;21237;-64
2023/06/11 06:23:18;;;;;;;8.63;7.83;;;;;;;;;;6230538;28;20440;-61
2023/06/11 06:26:22;;;;;;;8.63;7.93;;;;;;;;;;6241907;28;20439;-60
2023/06/11 06:29:26;;;;;;;7.87;7.13;;;;;;;;;;6243196;28;20437;-61
2023/06/11 06:32:29;;;;;;;8.33;7.63;;;;;;;;;;6240172;28;20913;-61
2023/06/11 06:35:34;;;;;;;7.67;7.07;;;;;;;;;;6209232;28;20453;-61
2023/06/11 06:38:36;;;;;;;7.67;6.97;;;;;;;;;;6234730;28;20436;-61
2023/06/11 06:41:39;;;;;;;11.47;8.17;;;;;;;;;;6271344;27;20448;-61
2023/06/11 06:44:42;;;;;;;13.87;8.07;;;;;;;;;;6238831;28;20444;-61
2023/06/11 06:47:46;;;;;;;9.10;8.20;;;;;;;;;;6259803;28;20436;-61
2023/06/11 06:50:50;;;;;;;8.90;8.10;;;;;;;;;;6246941;28;20456;-61
2023/06/11 06:53:53;;;;;;;8.83;7.90;;;;;;;;;;6254961;27;20509;-61
2023/06/11 06:56:56;;;;;;;7.70;7.00;;;;;;;;;;6236653;28;20440;-64
2023/06/11 06:59:59;;;;;;;9.33;8.13;;;;;;;;;;6242008;28;20982;-64
2023/06/11 07:03:02;;;;;;;8.90;7.57;;;;;;;;;;6250845;27;20940;-64
2023/06/11 07:06:06;;;;;;;17.20;7.90;;;;;;;;;;6246392;28;20796;-70
2023/06/11 07:09:09;;;;;;;9.80;8.83;;;;;;;;;;6237261;27;20834;-64
2023/06/11 07:12:12;;;;;;;11.40;10.30;;;;;;;;;;6245851;28;20455;-63
2023/06/11 07:15:15;;;;;;;15.20;11.23;;;;;;;;;;6242272;28;20436;-64
2023/06/11 07:18:18;;;;;;;13.17;10.13;;;;;;;;;;6241951;27;20444;-64
2023/06/11 07:21:23;;;;;;;11.03;10.13;;;;;;;;;;6251001;27;20448;-65
2023/06/11 07:24:26;;;;;;;11.50;10.43;;;;;;;;;;6244967;28;20929;-64
2023/06/11 07:27:28;;;;;;;11.37;10.37;;;;;;;;;;6248344;28;20443;-63
2023/06/11 07:30:32;;;;;;;16.57;9.77;;;;;;;;;;6254748;27;20517;-65
2023/06/11 07:33:35;;;;;;;10.47;9.47;;;;;;;;;;6245469;27;20444;-63
2023/06/11 07:36:39;;;;;;;11.07;9.70;;;;;;;;;;6265189;27;21067;-62
2023/06/11 07:39:42;;;;;;;13.93;10.17;;;;;;;;;;6253744;27;20436;-62
2023/06/11 07:42:45;;;;;;;19.53;10.23;;;;;;;;;;6234758;28;20587;-62
2023/06/11 07:45:48;;;;;;;14.90;10.00;;;;;;;;;;6246147;28;20436;-63
2023/06/11 07:48:51;;;;;;;11.03;10.03;;;;;;;;;;6271156;28;20543;-65
2023/06/11 07:51:56;;;;;;;15.33;10.10;;;;;;;;;;6244343;28;20942;-63
2023/06/11 07:54:59;;;;;;;13.80;9.33;;;;;;;;;;6235099;27;20444;-64
2023/06/11 07:58:02;;;;;;;12.50;10.53;;;;;;;;;;6245993;27;20501;-65
2023/06/11 08:01:05;;;;;;;17.13;10.37;;;;;;;;;;6248359;28;20476;-65
2023/06/11 08:04:08;;;;;;;13.07;9.43;;;;;;;;;;6243985;28;20450;-65
2023/06/11 08:07:12;;;;;;;11.83;9.90;;;;;;;;;;6235232;28;20527;-65
2023/06/11 08:10:15;;;;;;;12.03;9.10;;;;;;;;;;6304490;27;20911;-73
2023/06/11 08:13:18;;;;;;;10.67;9.57;;;;;;;;;;6315466;28;20472;-72
2023/06/11 08:16:21;;;;;;;13.40;12.20;;;;;;;;;;6242294;27;20455;-71
2023/06/11 08:19:24;;;;;;;11.50;10.40;;;;;;;;;;6240630;28;20466;-72
2023/06/11 08:22:28;;;;;;;10.60;9.50;;;;;;;;;;6236917;28;20534;-70
2023/06/11 08:25:31;;;;;;;8.30;7.50;;;;;;;;;;6251273;27;20610;-71
2023/06/11 08:28:35;;;;;;;8.83;8.03;;;;;;;;;;6255175;27;20437;-70
2023/06/11 08:31:38;;;;;;;9.10;7.83;;;;;;;;;;6248651;27;20447;-71
2023/06/11 08:34:41;;;;;;;9.20;7.73;;;;;;;;;;6244725;27;20444;-70
2023/06/11 08:37:46;;;;;;;9.03;7.63;;;;;;;;;;6245282;28;20443;-70
2023/06/11 08:40:48;;;;;;;11.40;9.20;;;;;;;;;;6245252;27;20450;-71
2023/06/11 08:43:51;;;;;;;11.67;9.67;;;;;;;;;;6243754;28;20485;-70
2023/06/11 08:46:55;;;;;;;9.77;8.93;;;;;;;;;;6244254;28;20509;-71
2023/06/11 08:49:59;;;;;;;8.30;7.60;;;;;;;;;;6245073;28;20435;-70
2023/06/11 08:53:04;;;;;;;8.77;7.47;;;;;;;;;;6236212;27;20448;-70
2023/06/11 08:56:07;;;;;;;8.37;7.67;;;;;;;;;;6250360;27;20861;-71
2023/06/11 08:59:10;;;;;;;10.20;8.20;;;;;;;;;;6261365;27;20571;-70
2023/06/11 09:02:13;;;;;;;9.03;8.10;;;;;;;;;;6234897;28;20469;-66
2023/06/11 09:05:16;;;;;;;8.77;7.60;;;;;;;;;;6242418;28;20454;-72
2023/06/11 09:08:21;;;;;;;12.20;7.63;;;;;;;;;;6239062;28;20440;-71
2023/06/11 09:11:24;;;;;;;10.10;7.57;;;;;;;;;;6245764;28;20558;-73
2023/06/11 09:14:27;;;;;;;12.40;8.80;;;;;;;;;;6234075;27;20448;-71
2023/06/11 09:17:36;;;;;;;8.83;7.87;;;;;;;;;;6244845;28;20436;-72
2023/06/11 09:20:39;;;;;;;9.20;7.40;;;;;;;;;;6271669;27;20487;-71
2023/06/11 09:23:45;;;;;;;15.17;8.60;;;;;;;;;;6248013;27;20618;-70
2023/06/11 09:26:52;;;;;;;11.33;7.70;;;;;;;;;;6228376;27;20436;-68
2023/06/11 09:29:55;;;;;;;9.90;9.00;;;;;;;;;;6246779;27;20448;-67
2023/06/11 09:32:58;;;;;;;9.50;7.77;;;;;;;;;;6243389;28;20444;-69
2023/06/11 09:36:01;;;;;;;7.67;6.90;;;;;;;;;;6237640;28;20443;-67
2023/06/11 09:39:05;;;;;;;8.13;7.33;;;;;;;;;;6255477;28;20437;-69
2023/06/11 09:42:12;;;;;;;7.80;7.10;;;;;;;;;;6298054;27;20443;-69
2023/06/11 09:45:16;;;;;;;7.87;6.27;;;;;;;;;;6296503;27;20420;-69
2023/06/11 09:48:19;;;;;;;7.57;6.77;;;;;;;;;;6237762;27;20444;-68
2023/06/11 09:51:23;;;;;;;7.37;6.77;;;;;;;;;;6291110;27;20566;-69
2023/06/11 09:54:28;;;;;;;6.83;6.23;;;;;;;;;;6282235;27;20440;-69
2023/06/11 09:57:31;;;;;;;6.93;6.43;;;;;;;;;;6330456;27;20459;-68
2023/06/11 10:00:35;;;;;;;7.47;6.87;;;;;;;;;;6291657;27;21008;-68
2023/06/11 10:03:38;;;;;;;7.03;6.43;;;;;;;;;;6250751;27;20455;-68
2023/06/11 10:06:43;;;;;;;7.00;6.40;;;;;;;;;;6309026;27;20523;-68
2023/06/11 10:09:49;;;;;;;7.10;6.40;;;;;;;;;;6284851;27;20954;-69
2023/06/11 10:12:53;;;;;;;7.23;6.63;;;;;;;;;;6243118;27;20799;-67
2023/06/11 10:15:56;;;;;;;8.67;7.87;;;;;;;;;;6241889;27;20443;-68
2023/06/11 10:19:08;;;;;;;7.77;6.97;;;;;;;;;;6261549;27;20436;-68
2023/06/11 10:22:11;;;;;;;7.00;6.27;;;;;;;;;;6228566;27;20943;-68
2023/06/11 10:25:16;;;;;;;9.17;7.13;;;;;;;;;;6242112;28;20956;-71
2023/06/11 10:28:19;;;;;;;9.67;7.40;;;;;;;;;;6245204;28;20432;-62
2023/06/11 10:31:26;;;;;;;8.03;7.23;;;;;;;;;;6290280;27;20428;-62
2023/06/11 10:34:38;;;;;;;8.27;7.53;;;;;;;;;;6232842;27;20797;-62
2023/06/11 10:37:42;;;;;;;8.57;7.87;;;;;;;;;;6246446;28;20456;-62
2023/06/11 10:40:48;;;;;;;11.60;7.70;;;;;;;;;;6250045;27;20424;-68
2023/06/11 10:43:51;;;;;;;8.30;7.60;;;;;;;;;;6243338;27;20531;-62
2023/06/11 10:46:54;;;;;;;8.10;7.40;;;;;;;;;;6238940;27;20432;-62
2023/06/11 10:50:07;;;;;;;7.90;7.10;;;;;;;;;;6246322;27;20893;-62
2023/06/11 10:53:13;;;;;;;8.47;7.67;;;;;;;;;;6249222;27;20446;-63
2023/06/11 10:56:20;;;;;;;9.97;8.00;;;;;;;;;;6233786;28;20933;-63
2023/06/11 10:59:23;;;;;;;8.13;7.20;;;;;;;;;;6256583;28;21016;-62
2023/06/11 11:02:27;;;;;;;13.57;7.63;;;;;;;;;;6279250;27;20472;-62
2023/06/11 11:05:30;;;;;;;7.70;6.97;;;;;;;;;;6297321;27;20432;-62
2023/06/11 11:08:33;;;;;;;10.07;7.00;;;;;;;;;;6300488;27;20501;-63
2023/06/11 11:11:38;;;;;;;8.10;7.27;;;;;;;;;;6245722;28;20436;-61
2023/06/11 11:14:41;;;;;;;9.03;6.60;;;;;;;;;;6290137;28;20444;-61
2023/06/11 11:17:45;;;;;;;9.23;7.73;;;;;;;;;;6245465;27;20463;-68
2023/06/11 11:20:48;;;;;;;7.47;6.67;;;;;;;;;;6241020;27;20444;-62
2023/06/11 11:23:51;;;;;;;7.53;6.70;;;;;;;;;;6246337;28;20435;-62
2023/06/11 11:26:55;;;;;;;7.00;6.40;;;;;;;;;;6246403;28;20535;-61
2023/06/11 11:30:00;;;;;;;7.00;6.00;;;;;;;;;;6272204;27;20472;-62
2023/06/11 11:33:11;;;;;;;9.30;5.93;;;;;;;;;;6245006;27;20949;-62
2023/06/11 11:36:14;;;;;;;9.30;6.00;;;;;;;;;;6265565;27;20403;-61
2023/06/11 11:39:17;;;;;;;6.63;5.73;;;;;;;;;;6246674;27;20436;-62
2023/06/11 11:42:22;;;;;;;7.30;5.40;;;;;;;;;;6237261;27;20895;-62
2023/06/11 11:45:33;;;;;;;8.00;4.93;;;;;;;;;;6243837;28;20439;-66
2023/06/11 11:48:36;;;;;;;6.07;5.50;;;;;;;;;;6253884;27;20447;-61
2023/06/11 11:51:40;;;;;;;7.40;5.80;;;;;;;;;;6245794;28;20473;-63
2023/06/11 11:54:44;;;;;;;5.33;4.83;;;;;;;;;;6235554;28;21015;-61
2023/06/11 11:57:48;;;;;;;5.37;4.83;;;;;;;;;;6331384;27;20514;-62
2023/06/11 12:00:51;;;;;;;5.10;4.43;;;;;;;;;;6248383;28;20452;-61
2023/06/11 12:03:57;;;;;;;5.10;4.67;;;;;;;;;;6238470;27;20455;-63
2023/06/11 12:07:05;;;;;;;6.63;4.57;;;;;;;;;;6260552;27;20432;-61
2023/06/11 12:10:09;;;;;;;5.33;4.83;;;;;;;;;;6246458;28;20436;-61
2023/06/11 12:13:13;;;;;;;5.53;5.03;;;;;;;;;;6244550;28;20941;-62
2023/06/11 12:16:16;;;;;;;5.10;4.37;;;;;;;;;;6233698;28;20447;-61
2023/06/11 12:19:19;;;;;;;5.10;4.60;;;;;;;;;;6247641;28;21092;-63
2023/06/11 12:22:27;;;;;;;4.90;4.43;;;;;;;;;;6247859;27;20428;-59
2023/06/11 12:25:31;;;;;;;5.03;4.40;;;;;;;;;;6245197;27;20440;-60
2023/06/11 12:28:36;;;;;;;6.07;5.37;;;;;;;;;;6243858;27;20845;-60
2023/06/11 12:31:39;;;;;;;5.93;4.87;;;;;;;;;;6253544;27;20440;-58
2023/06/11 12:34:42;;;;;;;7.00;4.90;;;;;;;;;;6269524;27;20857;-58
2023/06/11 12:37:46;;;;;;;5.20;4.60;;;;;;;;;;6239580;28;20542;-60
2023/06/11 12:40:49;;;;;;;5.33;4.83;;;;;;;;;;6239603;28;20444;-59
2023/06/11 12:43:53;;;;;;;5.80;4.70;;;;;;;;;;6237726;27;20440;-59
2023/06/11 12:46:56;;;;;;;4.10;3.80;;;;;;;;;;6244783;28;20444;-59
2023/06/11 12:49:59;;;;;;;5.63;5.13;;;;;;;;;;6236877;27;20440;-68
2023/06/11 12:53:04;;;;;;;4.57;4.13;;;;;;;;;;6242273;28;20957;-69
2023/06/11 12:56:07;;;;;;;4.73;4.33;;;;;;;;;;6240068;28;20456;-68
2023/06/11 12:59:11;;;;;;;5.30;4.53;;;;;;;;;;6246550;27;20438;-69
2023/06/11 13:02:14;;;;;;;5.43;4.53;;;;;;;;;;6234273;27;20439;-69
2023/06/11 13:05:21;;;;;;;5.60;4.50;;;;;;;;;;6245930;27;20558;-69
2023/06/11 13:08:24;;;;;;;4.87;4.47;;;;;;;;;;6244505;27;20942;-70
2023/06/11 13:11:27;;;;;;;5.17;4.77;;;;;;;;;;6245539;28;20439;-66
2023/06/11 13:14:31;;;;;;;4.30;4.00;;;;;;;;;;6237060;28;20443;-69
2023/06/11 13:17:34;;;;;;;4.50;3.70;;;;;;;;;;6242497;28;20531;-70
2023/06/11 13:20:37;;;;;;;5.37;3.70;;;;;;;;;;6255149;27;20442;-69
2023/06/11 13:23:42;;;;;;;4.27;3.87;;;;;;;;;;6234086;28;20527;-70
2023/06/11 13:26:46;;;;;;;4.30;3.90;;;;;;;;;;6280759;27;20517;-69
2023/06/11 13:29:50;;;;;;;4.67;4.27;;;;;;;;;;6254131;27;20458;-70
2023/06/11 13:32:53;;;;;;;4.63;4.33;;;;;;;;;;6296914;27;20467;-71
2023/06/11 13:35:56;;;;;;;4.77;4.37;;;;;;;;;;6282332;27;20441;-72
2023/06/11 13:38:59;;;;;;;5.83;4.13;;;;;;;;;;6283214;27;20429;-70
2023/06/11 13:42:02;;;;;;;3.83;3.53;;;;;;;;;;6241632;27;20444;-70
2023/06/11 13:45:07;;;;;;;4.40;4.00;;;;;;;;;;6235498;27;20517;-70
2023/06/11 13:48:13;;;;;;;4.47;4.17;;;;;;;;;;6244254;27;20570;-70
2023/06/11 13:51:16;;;;;;;4.67;4.27;;;;;;;;;;6249499;28;20451;-70
2023/06/11 13:54:19;;;;;;;4.30;3.90;;;;;;;;;;6251708;27;20546;-70
2023/06/11 13:57:27;;;;;;;5.17;4.60;;;;;;;;;;6231638;28;20455;-70
2023/06/11 14:00:33;;;;;;;4.40;4.00;;;;;;;;;;6262755;27;20492;-68
2023/06/11 14:03:36;;;;;;;4.50;4.00;;;;;;;;;;6250358;27;20484;-68
2023/06/11 14:06:40;;;;;;;4.20;3.90;;;;;;;;;;6242869;28;20505;-67
2023/06/11 14:09:42;;;;;;;4.43;4.03;;;;;;;;;;6236547;27;20455;-68
2023/06/11 14:12:45;;;;;;;5.30;4.13;;;;;;;;;;6256758;27;20439;-74
2023/06/11 14:15:50;;;;;;;4.90;4.00;;;;;;;;;;6242829;28;20456;-71
2023/06/11 14:18:53;;;;;;;6.03;4.30;;;;;;;;;;6240941;27;20440;-70
2023/06/11 14:21:57;;;;;;;7.10;4.63;;;;;;;;;;6232329;28;20470;-71
2023/06/11 14:25:00;;;;;;;5.63;5.10;;;;;;;;;;6242622;28;20436;-70
2023/06/11 14:28:03;;;;;;;5.23;4.20;;;;;;;;;;6242314;28;20444;-69
2023/06/11 14:31:07;;;;;;;12.67;5.40;;;;;;;;;;6236437;27;20914;-65
2023/06/11 14:34:10;;;;;;;11.40;5.20;;;;;;;;;;6242326;27;20965;-65
2023/06/11 14:37:13;;;;;;;13.63;5.10;;;;;;;;;;6240050;27;20570;-65
2023/06/11 14:40:16;;;;;;;14.23;5.77;;;;;;;;;;6254809;27;20443;-66
2023/06/11 14:43:19;;;;;;;11.40;5.30;;;;;;;;;;6233265;27;20525;-63
2023/06/11 14:46:23;;;;;;;15.97;5.90;;;;;;;;;;6241006;28;20444;-66
2023/06/11 14:49:26;;;;;;;13.23;5.93;;;;;;;;;;6240701;28;20448;-65
2023/06/11 14:52:29;;;;;;;19.50;6.60;;;;;;;;;;6242968;27;20455;-64
2023/06/11 14:55:32;;;;;;;20.07;6.53;;;;;;;;;;6236982;27;20451;-66
2023/06/11 14:58:35;;;;;;;13.43;5.83;;;;;;;;;;6243091;28;20956;-65
2023/06/11 15:01:41;;;;;;;8.07;5.20;;;;;;;;;;6242753;27;20466;-65
2023/06/11 15:04:44;;;;;;;18.33;5.13;;;;;;;;;;6242528;28;20452;-67
2023/06/11 15:07:47;;;;;;;13.40;5.87;;;;;;;;;;6232786;28;20968;-65
2023/06/11 15:10:50;;;;;;;15.03;5.03;;;;;;;;;;6242634;28;20460;-62
2023/06/11 15:13:53;;;;;;;15.60;5.83;;;;;;;;;;6241922;28;20465;-62
2023/06/11 15:16:57;;;;;;;10.50;5.00;;;;;;;;;;6237022;27;20455;-61
2023/06/11 15:20:00;;;;;;;17.00;5.43;;;;;;;;;;6245444;27;20440;-61
2023/06/11 15:23:03;;;;;;;12.27;5.50;;;;;;;;;;6291509;27;20515;-61
2023/06/11 15:26:06;;;;;;;13.57;5.60;;;;;;;;;;6246336;27;20581;-62
2023/06/11 15:29:10;;;;;;;19.27;5.40;;;;;;;;;;6290491;27;20503;-61
2023/06/11 15:32:17;;;;;;;19.83;5.93;;;;;;;;;;6244436;27;20577;-64
2023/06/11 15:35:20;;;;;;;24.53;6.47;;;;;;;;;;6246520;27;20447;-62
2023/06/11 15:38:23;;;;;;;24.60;6.30;;;;;;;;;;6240031;27;20552;-63
2023/06/11 15:41:29;;;;;;;11.90;5.47;;;;;;;;;;6232620;27;21087;-64
2023/06/11 15:44:32;;;;;;;14.90;5.37;;;;;;;;;;6236395;27;20432;-63
2023/06/11 15:47:36;;;;;;;9.60;5.50;;;;;;;;;;6232688;28;20436;-62
2023/06/11 15:50:40;;;;;;;10.60;4.93;;;;;;;;;;6239810;27;20443;-64
2023/06/11 15:53:42;;;;;;;12.27;5.03;;;;;;;;;;6240515;28;20440;-62
2023/06/11 15:56:47;;;;;;;13.87;5.50;;;;;;;;;;6279137;27;20451;-62
2023/06/11 15:59:50;;;;;;;9.23;5.80;;;;;;;;;;6247750;27;20441;-62
2023/06/11 16:02:55;;;;;;;10.77;5.87;;;;;;;;;;6233107;28;20575;-63
2023/06/11 16:05:58;;;;;;;7.90;5.50;;;;;;;;;;6243016;28;20436;-62
2023/06/11 16:09:01;;;;;;;9.73;5.90;;;;;;;;;;6245533;27;20455;-62
2023/06/11 16:12:04;;;;;;;10.97;6.90;;;;;;;;;;6237825;28;20438;-62
2023/06/11 16:15:07;;;;;;;6.77;6.07;;;;;;;;;;6256434;27;20532;-64
2023/06/11 16:18:14;;;;;;;8.83;6.60;;;;;;;;;;6294413;28;20451;-62
2023/06/11 16:21:17;;;;;;;8.80;6.30;;;;;;;;;;6316889;27;20459;-68
2023/06/11 16:24:20;;;;;;;12.23;7.10;;;;;;;;;;6298532;27;20546;-68
2023/06/11 16:27:23;;;;;;;10.97;6.90;;;;;;;;;;6234229;27;21037;-68
2023/06/11 16:30:26;;;;;;;9.57;6.47;;;;;;;;;;6243468;28;20451;-68
2023/06/11 16:33:31;;;;;;;5.73;5.23;;;;;;;;;;6244700;28;20440;-68
2023/06/11 16:36:54;;;;;;;7.57;5.30;;;;;;;;;;6223762;28;20581;-67
2023/06/11 16:39:56;;;;;;;6.83;5.23;;;;;;;;;;6244736;28;20557;-68
2023/06/11 16:42:59;;;;;;;6.00;5.50;;;;;;;;;;6252994;27;20432;-67
2023/06/11 16:46:02;;;;;;;7.73;5.73;;;;;;;;;;6244860;28;20440;-68
2023/06/11 16:49:06;;;;;;;9.53;5.20;;;;;;;;;;6232903;27;20447;-67
2023/06/11 16:52:09;;;;;;;5.70;5.20;;;;;;;;;;6244556;28;20440;-69
2023/06/11 16:55:13;;;;;;;6.10;5.50;;;;;;;;;;6257386;27;20550;-68
2023/06/11 16:58:16;;;;;;;7.03;5.37;;;;;;;;;;6265687;27;20432;-69
2023/06/11 17:01:19;;;;;;;6.47;5.50;;;;;;;;;;6235624;27;20444;-68
2023/06/11 17:04:23;;;;;;;14.70;6.10;;;;;;;;;;6236238;28;20447;-67
2023/06/11 17:07:26;;;;;;;18.83;6.17;;;;;;;;;;6241851;28;20440;-68
2023/06/11 17:10:29;;;;;;;24.87;7.60;;;;;;;;;;6238060;28;20448;-67
2023/06/11 17:13:32;;;;;;;11.60;5.07;;;;;;;;;;6249030;28;20600;-67
2023/06/11 17:16:35;;;;;;;9.03;5.27;;;;;;;;;;6245520;27;20539;-70
2023/06/11 17:19:44;;;;;;;12.20;5.17;;;;;;;;;;6244492;28;20436;-70
2023/06/11 17:22:50;;;;;;;6.10;4.70;;;;;;;;;;6225141;28;21000;-70
2023/06/11 17:25:54;;;;;;;5.83;4.20;;;;;;;;;;6245304;28;20428;-65
2023/06/11 17:28:57;;;;;;;4.73;4.23;;;;;;;;;;6244914;28;20432;-63
2023/06/11 17:32:00;;;;;;;6.73;4.30;;;;;;;;;;6244989;27;20446;-63
2023/06/11 17:35:04;;;;;;;5.80;4.87;;;;;;;;;;6234889;27;20452;-63
2023/06/11 17:38:07;;;;;;;6.67;4.87;;;;;;;;;;6244728;28;20819;-63
2023/06/11 17:41:10;;;;;;;5.37;4.87;;;;;;;;;;6244874;27;20581;-63
2023/06/11 17:44:17;;;;;;;5.30;4.30;;;;;;;;;;6243552;27;20482;-63
2023/06/11 17:47:22;;;;;;;4.93;4.30;;;;;;;;;;6242961;28;20441;-62
2023/06/11 17:50:27;;;;;;;6.87;4.30;;;;;;;;;;6244601;28;20812;-63
2023/06/11 17:53:30;;;;;;;4.97;4.47;;;;;;;;;;6244541;28;20435;-63
2023/06/11 17:56:33;;;;;;;5.90;5.03;;;;;;;;;;6234582;27;20948;-64
2023/06/11 17:59:38;;;;;;;4.93;4.50;;;;;;;;;;6244755;27;20933;-63
2023/06/11 18:02:43;;;;;;;5.50;4.40;;;;;;;;;;6243441;27;20442;-64
2023/06/11 18:05:47;;;;;;;5.37;4.87;;;;;;;;;;6244076;28;20497;-63
2023/06/11 18:08:52;;;;;;;4.87;4.30;;;;;;;;;;6236427;27;20957;-64
2023/06/11 18:12:06;;;;;;;6.53;5.13;;;;;;;;;;6251769;27;20444;-63
2023/06/11 18:15:10;;;;;;;6.03;5.07;;;;;;;;;;6235902;27;20436;-62